createdAt,value
2019-01-15T00:00:37.408Z,100215.95
2019-01-15T00:03:27.632Z,100201.77
2019-01-15T00:06:17.423Z,100214.81
2019-01-15T00:09:09.570Z,100217.85
2019-01-15T00:11:58.947Z,100223.47
2019-01-15T00:14:49.016Z,100226.51
2019-01-15T00:17:38.883Z,100233.59
2019-01-15T00:20:28.439Z,100234.03
2019-01-15T00:23:21.758Z,100232.03
2019-01-15T00:26:11.894Z,100227.96
2019-01-15T00:29:02.284Z,100230.86
2019-01-15T00:31:52.526Z,100239.02
2019-01-15T00:34:42.430Z,100240.62
2019-01-15T00:37:32.444Z,100241.25
2019-01-15T00:40:22.410Z,100248.27
2019-01-15T00:43:12.180Z,100252.39
2019-01-15T00:46:01.883Z,100248.91
2019-01-15T00:48:51.979Z,100249.84
2019-01-15T00:51:41.762Z,100250.12
2019-01-15T00:54:31.793Z,100251.78
2019-01-15T00:57:21.634Z,100247.58
2019-01-15T01:00:19.169Z,100252.98
2019-01-15T01:03:09.385Z,100258.97
2019-01-15T01:05:59.710Z,100264.65
2019-01-15T01:08:50.194Z,100267.13
2019-01-15T01:11:40.239Z,100263.81
2019-01-15T01:14:30.213Z,100268.09
2019-01-15T01:17:20.310Z,100272.77
2019-01-15T01:20:13.089Z,100283.94
2019-01-15T01:23:02.975Z,100285.91
2019-01-15T01:25:53.006Z,100285.21
2019-01-15T01:28:43.183Z,100280.89
2019-01-15T01:31:32.936Z,100287.31
2019-01-15T01:34:22.539Z,100291.59
2019-01-15T01:37:12.362Z,100288.16
2019-01-15T01:40:02.137Z,100283.91
2019-01-15T01:42:52.243Z,100290.26
2019-01-15T01:45:42.348Z,100297.71
2019-01-15T01:48:32.274Z,100287.68
2019-01-15T01:51:21.933Z,100296.31
2019-01-15T01:54:11.805Z,100294.07
2019-01-15T01:57:02.059Z,100296.24
2019-01-15T01:59:52.237Z,100292.94
2019-01-15T02:02:41.858Z,100297.91
2019-01-15T02:05:31.880Z,100294.07
2019-01-15T02:08:22.112Z,100299.25
2019-01-15T02:11:12.359Z,100298.08
2019-01-15T02:14:02.421Z,100300.82
2019-01-15T02:16:52.129Z,100291.96
2019-01-15T02:19:41.476Z,100295.80
2019-01-15T02:22:31.369Z,100296.73
2019-01-15T02:25:21.883Z,100300.25
2019-01-15T02:28:11.988Z,100304.86
2019-01-15T02:31:01.841Z,100310.53
2019-01-15T02:33:51.371Z,100307.28
2019-01-15T02:36:41.720Z,100309.42
2019-01-15T02:39:31.953Z,100307.71
2019-01-15T02:42:21.862Z,100311.72
2019-01-15T02:45:14.658Z,100309.22
2019-01-15T02:48:04.974Z,100304.90
2019-01-15T02:50:57.017Z,100306.54
2019-01-15T02:53:46.622Z,100312.86
2019-01-15T02:56:36.330Z,100308.85
2019-01-15T02:59:26.140Z,100308.15
2019-01-15T03:02:16.208Z,100311.86
2019-01-15T03:05:07.075Z,100309.98
2019-01-15T03:07:56.724Z,100309.98
2019-01-15T03:10:46.932Z,100309.96
2019-01-15T03:13:36.980Z,100312.77
2019-01-15T03:16:26.904Z,100316.58
2019-01-15T03:19:16.798Z,100318.22
2019-01-15T03:22:06.885Z,100311.53
2019-01-15T03:24:56.361Z,100310.80
2019-01-15T03:27:46.187Z,100315.66
2019-01-15T03:30:37.001Z,100321.52
2019-01-15T03:33:27.260Z,100322.02
2019-01-15T03:36:17.071Z,100323.41
2019-01-15T03:39:09.800Z,100327.76
2019-01-15T03:41:59.537Z,100327.06
2019-01-15T03:44:49.895Z,100327.63
2019-01-15T03:47:39.799Z,100320.45
2019-01-15T03:50:29.760Z,100324.66
2019-01-15T03:53:21.789Z,100323.52
2019-01-15T03:56:11.885Z,100324.89
2019-01-15T03:59:01.845Z,100332.55
2019-01-15T04:01:51.744Z,100331.62
2019-01-15T04:04:41.485Z,100334.92
2019-01-15T04:07:31.462Z,100339.38
2019-01-15T04:10:21.525Z,100332.31
2019-01-15T04:13:11.653Z,100337.47
2019-01-15T04:16:01.481Z,100338.44
2019-01-15T04:18:52.009Z,100344.63
2019-01-15T04:21:41.865Z,100346.97
2019-01-15T04:24:31.671Z,100350.74
2019-01-15T04:27:21.888Z,100359.91
2019-01-15T04:30:16.365Z,100359.27
2019-01-15T04:33:06.195Z,100357.09
2019-01-15T04:35:56.342Z,100354.19
2019-01-15T04:38:46.003Z,100356.53
2019-01-15T04:41:35.810Z,100363.05
2019-01-15T04:44:27.760Z,100349.20
2019-01-15T04:47:17.267Z,100344.11
2019-01-15T04:50:08.231Z,100343.55
2019-01-15T04:53:04.166Z,100337.62
2019-01-15T04:55:54.098Z,100339.23
2019-01-15T04:58:43.891Z,100337.93
2019-01-15T05:01:33.485Z,100335.84
2019-01-15T05:04:24.869Z,100340.36
2019-01-15T05:07:14.654Z,100346.92
2019-01-15T05:10:05.168Z,100357.77
2019-01-15T05:12:55.334Z,100366.09
2019-01-15T05:15:45.405Z,100360.55
2019-01-15T05:18:35.436Z,100360.17
2019-01-15T05:21:25.318Z,100364.12
2019-01-15T05:24:15.065Z,100360.47
2019-01-15T05:27:05.459Z,100361.81
2019-01-15T05:29:55.480Z,100362.98
2019-01-15T05:32:45.629Z,100361.68
2019-01-15T05:35:35.349Z,100359.20
2019-01-15T05:38:25.544Z,100369.70
2019-01-15T05:41:15.625Z,100371.11
2019-01-15T05:44:05.880Z,100363.08
2019-01-15T05:46:55.441Z,100355.26
2019-01-15T05:49:45.517Z,100368.44
2019-01-15T05:52:35.058Z,100356.53
2019-01-15T05:55:25.007Z,100350.91
2019-01-15T05:58:15.115Z,100355.26
2019-01-15T06:01:05.580Z,100359.07
2019-01-15T06:03:56.417Z,100357.80
2019-01-15T06:06:46.182Z,100364.78
2019-01-15T06:09:36.105Z,100362.64
2019-01-15T06:12:25.795Z,100355.56
2019-01-15T06:15:15.878Z,100347.87
2019-01-15T06:18:06.846Z,100344.16
2019-01-15T06:20:56.932Z,100341.18
2019-01-15T06:23:46.670Z,100339.00
2019-01-15T06:26:36.799Z,100337.59
2019-01-15T06:29:26.642Z,100340.61
2019-01-15T06:32:17.037Z,100341.51
2019-01-15T06:35:07.318Z,100345.39
2019-01-15T06:37:57.338Z,100346.23
2019-01-15T06:40:47.465Z,100347.43
2019-01-15T06:43:37.402Z,100355.77
2019-01-15T06:46:27.417Z,100360.98
2019-01-15T06:49:17.484Z,100361.58
2019-01-15T06:52:07.051Z,100365.26
2019-01-15T06:54:56.854Z,100363.75
2019-01-15T06:57:47.477Z,100370.55
2019-01-15T07:00:37.234Z,100366.53
2019-01-15T07:03:27.411Z,100372.92
2019-01-15T07:06:17.472Z,100370.55
2019-01-15T07:09:10.217Z,100367.94
2019-01-15T07:12:00.147Z,100364.99
2019-01-15T07:14:50.256Z,100372.65
2019-01-15T07:17:40.256Z,100373.63
2019-01-15T07:20:30.871Z,100373.22
2019-01-15T07:23:20.694Z,100377.70
2019-01-15T07:26:10.598Z,100383.98
2019-01-15T07:29:00.897Z,100386.30
2019-01-15T07:31:50.585Z,100390.81
2019-01-15T07:34:40.534Z,100394.45
2019-01-15T07:37:30.126Z,100392.28
2019-01-15T07:40:19.733Z,100382.42
2019-01-15T07:43:10.010Z,100388.91
2019-01-15T07:46:00.423Z,100389.87
2019-01-15T07:48:50.989Z,100387.70
2019-01-15T07:51:40.962Z,100387.50
2019-01-15T07:54:30.380Z,100398.54
2019-01-15T07:57:20.410Z,100405.50
2019-01-15T08:00:15.597Z,100405.36
2019-01-15T08:03:05.960Z,100415.80
2019-01-15T08:05:56.153Z,100419.58
2019-01-15T08:08:45.875Z,100422.59
2019-01-15T08:11:35.758Z,100410.48
2019-01-15T08:14:26.152Z,100406.80
2019-01-15T08:17:15.781Z,100415.36
2019-01-15T08:20:06.422Z,100409.80
2019-01-15T08:22:56.330Z,100403.05
2019-01-15T08:25:45.884Z,100389.08
2019-01-15T08:28:35.859Z,100380.79
2019-01-15T08:31:25.528Z,100379.58
2019-01-15T08:34:15.352Z,100358.48
2019-01-15T08:37:05.356Z,100362.30
2019-01-15T08:39:55.347Z,100352.55
2019-01-15T08:42:45.303Z,100349.67
2019-01-15T08:45:35.360Z,100339.55
2019-01-15T08:48:28.084Z,100335.86
2019-01-15T08:51:18.159Z,100338.46
2019-01-15T08:54:08.237Z,100349.42
2019-01-15T08:56:58.466Z,100335.70
2019-01-15T08:59:48.848Z,100344.33
2019-01-15T09:02:38.579Z,100336.21
2019-01-15T09:05:28.596Z,100326.79
2019-01-15T09:08:18.111Z,100328.63
2019-01-15T09:11:08.119Z,100323.08
2019-01-15T09:13:58.379Z,100322.52
2019-01-15T09:16:48.173Z,100319.59
2019-01-15T09:19:38.023Z,100322.36
2019-01-15T09:22:27.940Z,100339.59
2019-01-15T09:25:17.890Z,100334.95
2019-01-15T09:28:08.202Z,100331.23
2019-01-15T09:31:00.935Z,100327.80
2019-01-15T09:33:50.772Z,100336.77
2019-01-15T09:36:40.948Z,100332.50
2019-01-15T09:39:31.261Z,100320.02
2019-01-15T09:42:21.772Z,100306.25
2019-01-15T09:45:14.829Z,100302.94
2019-01-15T09:48:06.451Z,100295.77
2019-01-15T09:50:56.625Z,100301.34
2019-01-15T09:53:46.423Z,100291.34
2019-01-15T09:56:36.435Z,100301.50
2019-01-15T09:59:26.497Z,100287.08
2019-01-15T10:02:16.761Z,100280.26
2019-01-15T10:05:07.186Z,100291.52
2019-01-15T10:07:57.467Z,100294.53
2019-01-15T10:10:48.195Z,100274.23
2019-01-15T10:13:38.094Z,100273.02
2019-01-15T10:16:27.763Z,100276.83
2019-01-15T10:19:17.795Z,100271.22
2019-01-15T10:22:07.874Z,100274.44
2019-01-15T10:24:57.876Z,100271.84
2019-01-15T10:27:49.299Z,100266.02
2019-01-15T10:31:41.137Z,100260.91
2019-01-15T10:34:37.752Z,100265.34
2019-01-15T10:37:27.510Z,100270.20
2019-01-15T10:40:17.928Z,100265.95
2019-01-15T10:43:07.658Z,100258.30
2019-01-15T10:45:57.790Z,100253.56
2019-01-15T10:48:47.651Z,100251.36
2019-01-15T10:51:38.262Z,100243.13
2019-01-15T10:54:28.720Z,100246.44
2019-01-15T10:57:19.786Z,100233.48
2019-01-15T11:00:11.181Z,100223.17
2019-01-15T11:03:01.320Z,100233.52
2019-01-15T11:05:51.087Z,100227.45
2019-01-15T11:08:40.668Z,100219.23
2019-01-15T11:11:30.747Z,100214.39
2019-01-15T11:14:20.999Z,100211.10
2019-01-15T11:17:10.730Z,100215.86
2019-01-15T11:20:00.819Z,100216.08
2019-01-15T11:22:51.018Z,100214.56
2019-01-15T11:25:40.979Z,100212.28
2019-01-15T11:28:31.007Z,100215.80
2019-01-15T11:31:21.103Z,100210.64
2019-01-15T11:34:11.235Z,100203.94
2019-01-15T11:37:01.430Z,100207.02
2019-01-15T11:39:51.311Z,100204.88
2019-01-15T11:42:41.178Z,100203.94
2019-01-15T11:45:31.363Z,100208.58
2019-01-15T11:48:23.114Z,100195.48
2019-01-15T11:51:13.043Z,100190.11
2019-01-15T11:54:02.727Z,100194.75
2019-01-15T11:56:52.549Z,100195.77
2019-01-15T11:59:42.638Z,100189.89
2019-01-15T12:02:45.824Z,100187.72
2019-01-15T12:05:49.368Z,100178.03
2019-01-15T12:09:10.721Z,100179.27
2019-01-15T12:12:15.610Z,100182.97
2019-01-15T12:15:21.883Z,100168.52
2019-01-15T12:18:24.554Z,100165.23
2019-01-15T12:21:32.111Z,100166.86
2019-01-15T12:24:59.360Z,100168.42
2019-01-15T12:28:20.717Z,100157.28
2019-01-15T12:31:28.553Z,100159.13
2019-01-15T12:34:45.147Z,100157.46
2019-01-15T12:38:00.723Z,100159.75
2019-01-15T12:41:00.140Z,100154.59
2019-01-15T12:44:02.733Z,100148.91
2019-01-15T12:47:13.481Z,100153.14
2019-01-15T12:50:19.872Z,100155.94
2019-01-15T12:53:26.022Z,100151.30
2019-01-15T12:56:43.817Z,100150.14
2019-01-15T12:59:52.591Z,100145.92
2019-01-15T13:03:00.389Z,100136.72
2019-01-15T13:06:12.435Z,100140.55
2019-01-15T13:09:29.912Z,100141.56
2019-01-15T13:12:31.781Z,100141.67
2019-01-15T13:15:39.397Z,100138.77
2019-01-15T13:18:50.409Z,100143.32
2019-01-15T13:21:57.773Z,100145.27
2019-01-15T13:25:04.758Z,100147.86
2019-01-15T13:28:12.971Z,100149.08
2019-01-15T13:31:19.228Z,100136.81
2019-01-15T13:34:30.919Z,100136.48
2019-01-15T13:37:31.003Z,100142.37
2019-01-15T13:40:35.756Z,100150.32
2019-01-15T13:43:47.231Z,100142.34
2019-01-15T13:46:47.885Z,100140.47
2019-01-15T13:50:05.778Z,100136.93
2019-01-15T13:53:09.539Z,100129.60
2019-01-15T13:56:30.014Z,100128.01
2019-01-15T13:59:47.142Z,100129.45
2019-01-15T14:03:08.060Z,100118.67
2019-01-15T14:06:17.118Z,100115.47
2019-01-15T14:09:27.910Z,100103.89
2019-01-15T14:12:48.758Z,100108.63
2019-01-15T14:16:07.007Z,100092.21
2019-01-15T14:19:09.984Z,100100.28
2019-01-15T14:22:24.859Z,100090.36
2019-01-15T14:25:28.879Z,100087.99
2019-01-15T14:28:36.554Z,100091.89
2019-01-15T14:31:35.562Z,100071.54
2019-01-15T14:34:47.263Z,100074.75
2019-01-15T14:37:54.338Z,100072.34
2019-01-15T14:41:12.582Z,100081.05
2019-01-15T14:44:19.250Z,100084.06
2019-01-15T14:47:26.727Z,100075.06
2019-01-15T14:50:34.611Z,100066.59
2019-01-15T14:53:35.822Z,100073.31
2019-01-15T14:57:03.231Z,100072.80
2019-01-15T15:00:09.337Z,100073.59
2019-01-15T15:03:19.806Z,100067.61
2019-01-15T15:06:27.608Z,100061.16
2019-01-15T15:09:45.218Z,100064.77
2019-01-15T15:12:49.768Z,100063.72
2019-01-15T15:16:07.869Z,100070.66
2019-01-15T15:19:15.626Z,100066.72
2019-01-15T15:22:30.419Z,100057.51
2019-01-15T15:25:54.649Z,100055.46
2019-01-15T15:29:02.630Z,100051.24
2019-01-15T15:32:13.240Z,100063.97
2019-01-15T15:35:21.121Z,100067.27
2019-01-15T15:38:28.982Z,100065.61
2019-01-15T15:41:34.187Z,100062.22
2019-01-15T15:44:46.687Z,100063.66
2019-01-15T15:47:50.514Z,100055.08
2019-01-15T15:50:59.537Z,100053.38
2019-01-15T15:54:04.538Z,100055.52
2019-01-15T15:57:12.469Z,100047.55
2019-01-15T16:00:26.212Z,100041.34
2019-01-15T16:03:22.644Z,100048.80
2019-01-15T16:06:30.361Z,100034.77
2019-01-15T16:09:38.416Z,100038.69
2019-01-15T16:12:55.499Z,100050.97
2019-01-15T16:16:05.831Z,100050.64
2019-01-15T16:19:24.132Z,100048.89
2019-01-15T16:22:27.631Z,100052.12
2019-01-15T16:25:39.949Z,100051.63
2019-01-15T16:28:50.151Z,100044.26
2019-01-15T16:31:48.479Z,100043.66
2019-01-15T16:34:56.133Z,100038.50
2019-01-15T16:38:04.981Z,100049.30
2019-01-15T16:41:25.830Z,100045.78
2019-01-15T16:44:33.555Z,100034.52
2019-01-15T16:47:57.814Z,100044.11
2019-01-15T16:51:07.056Z,100038.55
2019-01-15T16:54:25.537Z,100042.90
2019-01-15T16:57:38.060Z,100037.77
2019-01-15T17:00:53.701Z,100045.13
2019-01-15T17:04:10.239Z,100045.13
2019-01-15T17:07:21.884Z,100036.96
2019-01-15T17:10:36.630Z,100033.44
2019-01-15T17:13:48.600Z,99606.36
2019-01-15T17:16:55.926Z,100034.17
2019-01-15T17:20:11.181Z,100034.34
2019-01-15T17:23:35.799Z,100036.72
2019-01-15T17:26:41.409Z,100029.30
2019-01-15T17:29:49.302Z,100032.91
2019-01-15T17:32:58.643Z,100025.36
2019-01-15T17:36:09.386Z,100018.03
2019-01-15T17:39:33.497Z,100016.72
2019-01-15T17:42:45.310Z,100014.45
2019-01-15T17:45:53.076Z,100025.82
2019-01-15T17:49:07.408Z,100026.91
2019-01-15T17:52:25.893Z,100025.11
2019-01-15T17:55:40.334Z,100027.94
2019-01-15T17:58:47.931Z,100024.08
2019-01-15T18:01:53.526Z,100013.91
2019-01-15T18:05:02.577Z,100027.30
2019-01-15T18:08:10.643Z,100030.08
2019-01-15T18:11:37.895Z,100034.12
2019-01-15T18:14:46.447Z,100029.94
2019-01-15T18:18:03.881Z,100022.61
2019-01-15T18:21:04.508Z,100031.91
2019-01-15T18:24:17.282Z,100033.63
2019-01-15T18:27:24.548Z,100033.69
2019-01-15T18:30:36.208Z,100023.16
2019-01-15T18:33:37.041Z,100022.92
2019-01-15T18:36:52.296Z,100016.36
2019-01-15T18:40:04.046Z,100026.47
2019-01-15T18:43:21.987Z,100029.75
2019-01-15T18:46:19.047Z,100027.43
2019-01-15T18:49:26.967Z,100015.83
2019-01-15T18:52:34.144Z,100018.73
2019-01-15T18:55:38.352Z,100029.67
2019-01-15T18:58:46.694Z,100018.16
2019-01-15T19:02:13.839Z,100009.77
2019-01-15T19:05:18.215Z,100030.19
2019-01-15T19:08:19.561Z,100014.20
2019-01-15T19:11:19.596Z,100015.16
2019-01-15T19:14:40.520Z,100018.67
2019-01-15T19:17:48.336Z,100017.06
2019-01-15T19:21:04.867Z,99603.25
2019-01-15T19:24:13.028Z,100015.12
2019-01-15T19:27:15.827Z,100016.50
2019-01-15T19:30:21.913Z,100017.49
2019-01-15T19:33:29.774Z,100015.40
2019-01-15T19:36:37.644Z,100019.09
2019-01-15T19:39:49.766Z,100027.00
2019-01-15T19:43:08.963Z,100024.38
2019-01-15T19:46:16.558Z,100032.38
2019-01-15T19:49:13.819Z,100027.31
2019-01-15T19:52:27.851Z,100023.13
2019-01-15T19:55:39.858Z,100021.46
2019-01-15T19:58:40.507Z,100025.35
2019-01-15T20:01:57.440Z,100028.04
2019-01-15T20:05:02.941Z,100036.75
2019-01-15T20:08:11.171Z,100038.69
2019-01-15T20:11:11.988Z,100030.45
2019-01-15T20:14:21.067Z,100031.88
2019-01-15T20:17:32.572Z,100030.97
2019-01-15T20:20:43.381Z,100033.89
2019-01-15T20:23:48.628Z,100041.37
2019-01-15T20:26:55.728Z,100039.05
2019-01-15T20:30:23.055Z,100040.47
2019-01-15T20:33:24.281Z,100039.28
2019-01-15T20:36:30.345Z,100054.25
2019-01-15T20:39:45.993Z,100041.81
2019-01-15T20:42:49.913Z,100044.88
2019-01-15T20:46:08.579Z,100054.17
2019-01-15T20:49:16.740Z,100049.31
2019-01-15T20:52:24.413Z,100059.84
2019-01-15T20:55:32.328Z,100068.91
2019-01-15T20:58:33.279Z,100063.80
2019-01-15T21:01:35.472Z,100064.27
2019-01-15T21:04:42.563Z,100062.69
2019-01-15T21:07:42.352Z,100049.53
2019-01-15T21:10:50.147Z,100063.67
2019-01-15T21:14:02.194Z,100064.72
2019-01-15T21:17:10.485Z,100063.69
2019-01-15T21:20:27.885Z,100064.72
2019-01-15T21:23:54.936Z,100070.41
2019-01-15T21:26:57.393Z,100057.83
2019-01-15T21:29:57.052Z,100064.05
2019-01-15T21:33:08.497Z,100063.22
2019-01-15T21:36:23.914Z,100058.22
2019-01-15T21:39:24.372Z,100055.52
2019-01-15T21:42:31.470Z,100061.94
2019-01-15T21:45:46.232Z,100064.55
2019-01-15T21:48:54.499Z,100062.33
2019-01-15T21:51:56.470Z,100072.27
2019-01-15T21:54:55.475Z,100063.59
2019-01-15T21:57:58.988Z,100062.73
2019-01-15T22:01:06.538Z,99927.59
2019-01-15T22:04:17.910Z,100067.95
2019-01-15T22:07:24.106Z,100063.89
2019-01-15T22:10:32.315Z,100055.61
2019-01-15T22:13:40.259Z,100055.35
2019-01-15T22:16:52.147Z,100065.00
2019-01-15T22:19:57.171Z,100052.26
2019-01-15T22:23:11.972Z,100056.11
2019-01-15T22:26:16.462Z,100053.79
2019-01-15T22:29:24.303Z,100057.41
2019-01-15T22:32:49.539Z,100054.03
2019-01-15T22:35:56.867Z,100054.59
2019-01-15T22:39:05.899Z,100045.70
2019-01-15T22:42:15.265Z,100050.47
2019-01-15T22:45:36.275Z,100050.60
2019-01-15T22:48:44.853Z,100051.16
2019-01-15T22:51:54.745Z,100045.27
2019-01-15T22:55:08.376Z,100041.10
2019-01-15T22:58:16.241Z,100045.45
2019-01-15T23:01:51.680Z,100044.84
2019-01-15T23:04:57.864Z,100045.73
2019-01-15T23:08:03.873Z,100036.33
2019-01-15T23:11:12.579Z,100038.77
2019-01-15T23:14:33.508Z,100042.58
2019-01-15T23:17:48.292Z,100039.41
2019-01-15T23:21:01.079Z,100041.36
2019-01-15T23:24:20.415Z,100038.67
2019-01-15T23:27:47.808Z,100036.02
2019-01-15T23:30:50.647Z,100036.33
2019-01-15T23:33:54.154Z,100036.18
2019-01-15T23:37:01.700Z,100037.16
2019-01-15T23:40:11.461Z,100030.95
2019-01-15T23:43:19.698Z,100035.86
2019-01-15T23:46:27.619Z,100036.18
2019-01-15T23:49:39.583Z,100028.77
2019-01-15T23:52:43.124Z,100039.05
2019-01-15T23:55:51.073Z,100041.91
2019-01-15T23:58:59.240Z,100040.41
